sensor_id;sensor_type;location;lat;lon;timestamp;temperature;humidity
60473;DHT22;46318;52.716;6.444;2024-02-21T00:02:21;9.10;100.00
60473;DHT22;46318;52.716;6.444;2024-02-21T00:04:46;9.10;100.00
60473;DHT22;46318;52.716;6.444;2024-02-21T00:07:12;9.10;100.00
60473;DHT22;46318;52.716;6.444;2024-02-21T00:09:38;9.10;100.00
60473;DHT22;46318;52.716;6.444;2024-02-21T00:12:04;9.10;100.00
60473;DHT22;46318;52.716;6.444;2024-02-21T00:14:30;9.10;100.00
60473;DHT22;46318;52.716;6.444;2024-02-21T00:16:56;9.00;100.00
60473;DHT22;46318;52.716;6.444;2024-02-21T00:19:22;9.10;100.00
60473;DHT22;46318;52.716;6.444;2024-02-21T00:21:48;9.10;100.00
60473;DHT22;46318;52.716;6.444;2024-02-21T00:24:14;9.00;100.00
60473;DHT22;46318;52.716;6.444;2024-02-21T00:26:39;9.10;100.00
60473;DHT22;46318;52.716;6.444;2024-02-21T00:29:05;9.10;100.00
60473;DHT22;46318;52.716;6.444;2024-02-21T00:31:31;9.10;100.00
60473;DHT22;46318;52.716;6.444;2024-02-21T00:33:57;9.10;100.00
60473;DHT22;46318;52.716;6.444;2024-02-21T00:36:23;9.10;100.00
60473;DHT22;46318;52.716;6.444;2024-02-21T00:38:49;9.10;100.00
60473;DHT22;46318;52.716;6.444;2024-02-21T00:41:15;9.10;100.00
60473;DHT22;46318;52.716;6.444;2024-02-21T00:43:41;9.10;100.00
60473;DHT22;46318;52.716;6.444;2024-02-21T00:46:08;9.10;100.00
60473;DHT22;46318;52.716;6.444;2024-02-21T00:48:34;9.10;100.00
60473;DHT22;46318;52.716;6.444;2024-02-21T00:51:00;9.10;100.00
60473;DHT22;46318;52.716;6.444;2024-02-21T00:53:26;9.00;100.00
60473;DHT22;46318;52.716;6.444;2024-02-21T00:55:51;9.00;100.00
60473;DHT22;46318;52.716;6.444;2024-02-21T00:58:17;9.10;100.00
60473;DHT22;46318;52.716;6.444;2024-02-21T01:00:43;9.00;100.00
60473;DHT22;46318;52.716;6.444;2024-02-21T01:03:09;9.00;100.00
60473;DHT22;46318;52.716;6.444;2024-02-21T01:05:35;9.00;100.00
60473;DHT22;46318;52.716;6.444;2024-02-21T01:08:00;9.00;100.00
60473;DHT22;46318;52.716;6.444;2024-02-21T01:10:26;9.00;100.00
60473;DHT22;46318;52.716;6.444;2024-02-21T01:12:52;9.00;100.00
60473;DHT22;46318;52.716;6.444;2024-02-21T01:15:18;9.00;100.00
60473;DHT22;46318;52.716;6.444;2024-02-21T01:17:44;9.00;100.00
60473;DHT22;46318;52.716;6.444;2024-02-21T01:20:10;9.00;100.00
60473;DHT22;46318;52.716;6.444;2024-02-21T01:22:36;9.00;100.00
60473;DHT22;46318;52.716;6.444;2024-02-21T01:25:02;9.00;100.00
60473;DHT22;46318;52.716;6.444;2024-02-21T01:27:28;9.00;100.00
60473;DHT22;46318;52.716;6.444;2024-02-21T01:29:54;9.00;100.00
60473;DHT22;46318;52.716;6.444;2024-02-21T01:32:20;9.00;100.00
60473;DHT22;46318;52.716;6.444;2024-02-21T01:34:47;8.90;100.00
60473;DHT22;46318;52.716;6.444;2024-02-21T01:37:13;8.90;100.00
60473;DHT22;46318;52.716;6.444;2024-02-21T01:39:38;8.90;100.00
60473;DHT22;46318;52.716;6.444;2024-02-21T01:42:04;8.90;100.00
60473;DHT22;46318;52.716;6.444;2024-02-21T01:44:31;8.90;100.00
60473;DHT22;46318;52.716;6.444;2024-02-21T01:46:57;8.90;100.00
60473;DHT22;46318;52.716;6.444;2024-02-21T01:49:23;8.90;100.00
60473;DHT22;46318;52.716;6.444;2024-02-21T01:51:49;8.90;100.00
60473;DHT22;46318;52.716;6.444;2024-02-21T01:54:17;8.90;100.00
60473;DHT22;46318;52.716;6.444;2024-02-21T01:56:45;8.90;100.00
60473;DHT22;46318;52.716;6.444;2024-02-21T01:59:12;8.90;100.00
60473;DHT22;46318;52.716;6.444;2024-02-21T02:01:38;8.90;100.00
60473;DHT22;46318;52.716;6.444;2024-02-21T02:04:05;8.90;100.00
60473;DHT22;46318;52.716;6.444;2024-02-21T02:06:31;8.90;100.00
60473;DHT22;46318;52.716;6.444;2024-02-21T02:08:57;8.90;100.00
60473;DHT22;46318;52.716;6.444;2024-02-21T02:11:23;8.90;100.00
60473;DHT22;46318;52.716;6.444;2024-02-21T02:13:49;8.90;100.00
60473;DHT22;46318;52.716;6.444;2024-02-21T02:16:15;8.90;100.00
60473;DHT22;46318;52.716;6.444;2024-02-21T02:18:41;8.90;100.00
60473;DHT22;46318;52.716;6.444;2024-02-21T02:21:23;8.80;100.00
60473;DHT22;46318;52.716;6.444;2024-02-21T02:23:52;8.80;100.00
60473;DHT22;46318;52.716;6.444;2024-02-21T02:26:17;8.80;100.00
60473;DHT22;46318;52.716;6.444;2024-02-21T02:28:43;8.80;100.00
60473;DHT22;46318;52.716;6.444;2024-02-21T02:31:09;8.80;100.00
60473;DHT22;46318;52.716;6.444;2024-02-21T02:33:35;8.70;100.00
60473;DHT22;46318;52.716;6.444;2024-02-21T02:36:01;8.70;100.00
60473;DHT22;46318;52.716;6.444;2024-02-21T02:38:26;8.70;100.00
60473;DHT22;46318;52.716;6.444;2024-02-21T02:40:52;8.70;100.00
60473;DHT22;46318;52.716;6.444;2024-02-21T02:43:18;8.70;100.00
60473;DHT22;46318;52.716;6.444;2024-02-21T02:45:45;8.70;100.00
60473;DHT22;46318;52.716;6.444;2024-02-21T02:48:11;8.70;100.00
60473;DHT22;46318;52.716;6.444;2024-02-21T02:50:36;8.70;100.00
60473;DHT22;46318;52.716;6.444;2024-02-21T02:53:02;8.70;100.00
60473;DHT22;46318;52.716;6.444;2024-02-21T02:55:28;8.70;100.00
60473;DHT22;46318;52.716;6.444;2024-02-21T02:57:55;8.70;100.00
60473;DHT22;46318;52.716;6.444;2024-02-21T03:00:21;8.70;100.00
60473;DHT22;46318;52.716;6.444;2024-02-21T03:02:49;8.70;100.00
60473;DHT22;46318;52.716;6.444;2024-02-21T03:05:20;8.70;100.00
60473;DHT22;46318;52.716;6.444;2024-02-21T03:07:47;8.70;100.00
60473;DHT22;46318;52.716;6.444;2024-02-21T03:10:14;8.60;100.00
60473;DHT22;46318;52.716;6.444;2024-02-21T03:12:41;8.70;100.00
60473;DHT22;46318;52.716;6.444;2024-02-21T03:15:08;8.60;100.00
60473;DHT22;46318;52.716;6.444;2024-02-21T03:17:34;8.60;100.00
60473;DHT22;46318;52.716;6.444;2024-02-21T03:20:02;8.60;100.00
60473;DHT22;46318;52.716;6.444;2024-02-21T03:22:31;8.60;100.00
60473;DHT22;46318;52.716;6.444;2024-02-21T03:25:00;8.60;100.00
60473;DHT22;46318;52.716;6.444;2024-02-21T03:27:26;8.60;100.00
60473;DHT22;46318;52.716;6.444;2024-02-21T03:29:52;8.60;100.00
60473;DHT22;46318;52.716;6.444;2024-02-21T03:32:18;8.60;100.00
60473;DHT22;46318;52.716;6.444;2024-02-21T03:34:44;8.60;100.00
60473;DHT22;46318;52.716;6.444;2024-02-21T03:37:09;8.70;100.00
60473;DHT22;46318;52.716;6.444;2024-02-21T03:39:35;8.60;100.00
60473;DHT22;46318;52.716;6.444;2024-02-21T03:42:02;8.60;100.00
60473;DHT22;46318;52.716;6.444;2024-02-21T03:44:33;8.60;100.00
60473;DHT22;46318;52.716;6.444;2024-02-21T03:46:59;8.60;100.00
60473;DHT22;46318;52.716;6.444;2024-02-21T03:49:26;8.60;100.00
60473;DHT22;46318;52.716;6.444;2024-02-21T03:51:52;8.60;100.00
60473;DHT22;46318;52.716;6.444;2024-02-21T03:54:18;8.60;100.00
60473;DHT22;46318;52.716;6.444;2024-02-21T03:56:44;8.60;100.00
60473;DHT22;46318;52.716;6.444;2024-02-21T03:59:10;8.70;100.00
60473;DHT22;46318;52.716;6.444;2024-02-21T04:01:36;8.70;100.00
60473;DHT22;46318;52.716;6.444;2024-02-21T04:04:02;8.60;100.00
60473;DHT22;46318;52.716;6.444;2024-02-21T04:06:28;8.60;100.00
60473;DHT22;46318;52.716;6.444;2024-02-21T04:08:54;8.60;100.00
60473;DHT22;46318;52.716;6.444;2024-02-21T04:11:20;8.60;100.00
60473;DHT22;46318;52.716;6.444;2024-02-21T04:13:45;8.60;100.00
60473;DHT22;46318;52.716;6.444;2024-02-21T04:16:14;8.60;100.00
60473;DHT22;46318;52.716;6.444;2024-02-21T04:18:41;8.70;100.00
60473;DHT22;46318;52.716;6.444;2024-02-21T04:21:09;8.60;100.00
60473;DHT22;46318;52.716;6.444;2024-02-21T04:23:35;8.70;100.00
60473;DHT22;46318;52.716;6.444;2024-02-21T04:26:01;8.70;100.00
60473;DHT22;46318;52.716;6.444;2024-02-21T04:28:27;8.60;100.00
60473;DHT22;46318;52.716;6.444;2024-02-21T04:30:52;8.70;100.00
60473;DHT22;46318;52.716;6.444;2024-02-21T04:33:18;8.70;100.00
60473;DHT22;46318;52.716;6.444;2024-02-21T04:35:44;8.70;100.00
60473;DHT22;46318;52.716;6.444;2024-02-21T04:38:09;8.70;100.00
60473;DHT22;46318;52.716;6.444;2024-02-21T04:40:35;8.70;100.00
60473;DHT22;46318;52.716;6.444;2024-02-21T04:43:01;8.70;100.00
60473;DHT22;46318;52.716;6.444;2024-02-21T04:45:27;8.70;100.00
60473;DHT22;46318;52.716;6.444;2024-02-21T04:47:52;8.70;100.00
60473;DHT22;46318;52.716;6.444;2024-02-21T04:50:18;8.70;100.00
60473;DHT22;46318;52.716;6.444;2024-02-21T04:52:44;8.70;100.00
60473;DHT22;46318;52.716;6.444;2024-02-21T04:55:10;8.70;100.00
60473;DHT22;46318;52.716;6.444;2024-02-21T04:57:35;8.70;100.00
60473;DHT22;46318;52.716;6.444;2024-02-21T05:00:01;8.70;100.00
60473;DHT22;46318;52.716;6.444;2024-02-21T05:02:29;8.70;100.00
60473;DHT22;46318;52.716;6.444;2024-02-21T05:04:55;8.70;100.00
60473;DHT22;46318;52.716;6.444;2024-02-21T05:07:21;8.70;100.00
60473;DHT22;46318;52.716;6.444;2024-02-21T05:09:47;8.70;100.00
60473;DHT22;46318;52.716;6.444;2024-02-21T05:12:13;8.70;100.00
60473;DHT22;46318;52.716;6.444;2024-02-21T05:14:39;8.70;100.00
60473;DHT22;46318;52.716;6.444;2024-02-21T05:17:05;8.70;100.00
60473;DHT22;46318;52.716;6.444;2024-02-21T05:19:30;8.70;100.00
60473;DHT22;46318;52.716;6.444;2024-02-21T05:21:56;8.70;100.00
60473;DHT22;46318;52.716;6.444;2024-02-21T05:24:22;8.70;100.00
60473;DHT22;46318;52.716;6.444;2024-02-21T05:26:48;8.70;100.00
60473;DHT22;46318;52.716;6.444;2024-02-21T05:29:13;8.70;100.00
60473;DHT22;46318;52.716;6.444;2024-02-21T05:31:55;8.70;100.00
60473;DHT22;46318;52.716;6.444;2024-02-21T05:34:22;8.70;100.00
60473;DHT22;46318;52.716;6.444;2024-02-21T05:36:48;8.70;100.00
60473;DHT22;46318;52.716;6.444;2024-02-21T05:39:15;8.70;100.00
60473;DHT22;46318;52.716;6.444;2024-02-21T05:41:44;8.70;100.00
60473;DHT22;46318;52.716;6.444;2024-02-21T05:44:10;8.70;100.00
60473;DHT22;46318;52.716;6.444;2024-02-21T05:46:37;8.70;100.00
60473;DHT22;46318;52.716;6.444;2024-02-21T05:49:03;8.70;100.00
60473;DHT22;46318;52.716;6.444;2024-02-21T05:51:33;8.70;100.00
60473;DHT22;46318;52.716;6.444;2024-02-21T05:53:59;8.70;100.00
60473;DHT22;46318;52.716;6.444;2024-02-21T05:56:25;8.70;100.00
60473;DHT22;46318;52.716;6.444;2024-02-21T05:58:50;8.70;100.00
60473;DHT22;46318;52.716;6.444;2024-02-21T06:01:16;8.70;100.00
60473;DHT22;46318;52.716;6.444;2024-02-21T06:03:43;8.70;100.00
60473;DHT22;46318;52.716;6.444;2024-02-21T06:06:09;8.70;100.00
60473;DHT22;46318;52.716;6.444;2024-02-21T06:08:35;8.70;100.00
60473;DHT22;46318;52.716;6.444;2024-02-21T06:11:01;8.70;100.00
60473;DHT22;46318;52.716;6.444;2024-02-21T06:13:27;8.70;100.00
60473;DHT22;46318;52.716;6.444;2024-02-21T06:15:53;8.70;100.00
60473;DHT22;46318;52.716;6.444;2024-02-21T06:18:20;8.70;100.00
60473;DHT22;46318;52.716;6.444;2024-02-21T06:20:46;8.70;100.00
60473;DHT22;46318;52.716;6.444;2024-02-21T06:23:13;8.70;100.00
60473;DHT22;46318;52.716;6.444;2024-02-21T06:25:40;8.70;100.00
60473;DHT22;46318;52.716;6.444;2024-02-21T06:28:06;8.70;100.00
60473;DHT22;46318;52.716;6.444;2024-02-21T06:30:32;8.70;100.00
60473;DHT22;46318;52.716;6.444;2024-02-21T06:32:58;8.70;100.00
60473;DHT22;46318;52.716;6.444;2024-02-21T06:35:24;8.70;100.00
60473;DHT22;46318;52.716;6.444;2024-02-21T06:37:51;8.70;100.00
60473;DHT22;46318;52.716;6.444;2024-02-21T06:40:20;8.70;100.00
60473;DHT22;46318;52.716;6.444;2024-02-21T06:42:47;8.70;100.00
60473;DHT22;46318;52.716;6.444;2024-02-21T06:45:12;8.70;100.00
60473;DHT22;46318;52.716;6.444;2024-02-21T06:47:38;8.60;100.00
60473;DHT22;46318;52.716;6.444;2024-02-21T06:50:04;8.70;100.00
60473;DHT22;46318;52.716;6.444;2024-02-21T06:52:30;8.70;100.00
60473;DHT22;46318;52.716;6.444;2024-02-21T06:54:56;8.70;100.00
60473;DHT22;46318;52.716;6.444;2024-02-21T06:57:26;8.60;100.00
60473;DHT22;46318;52.716;6.444;2024-02-21T06:59:51;8.60;100.00
60473;DHT22;46318;52.716;6.444;2024-02-21T07:02:17;8.60;100.00
60473;DHT22;46318;52.716;6.444;2024-02-21T07:04:43;8.60;100.00
60473;DHT22;46318;52.716;6.444;2024-02-21T07:07:09;8.60;100.00
60473;DHT22;46318;52.716;6.444;2024-02-21T07:09:35;8.60;100.00
60473;DHT22;46318;52.716;6.444;2024-02-21T07:12:01;8.60;100.00
60473;DHT22;46318;52.716;6.444;2024-02-21T07:14:32;8.60;100.00
60473;DHT22;46318;52.716;6.444;2024-02-21T07:16:58;8.60;100.00
60473;DHT22;46318;52.716;6.444;2024-02-21T07:19:24;8.60;100.00
60473;DHT22;46318;52.716;6.444;2024-02-21T07:21:49;8.60;100.00
60473;DHT22;46318;52.716;6.444;2024-02-21T07:24:15;8.60;100.00
60473;DHT22;46318;52.716;6.444;2024-02-21T07:26:42;8.60;100.00
60473;DHT22;46318;52.716;6.444;2024-02-21T07:29:11;8.60;100.00
60473;DHT22;46318;52.716;6.444;2024-02-21T07:31:43;8.60;100.00
60473;DHT22;46318;52.716;6.444;2024-02-21T07:34:09;8.60;100.00
60473;DHT22;46318;52.716;6.444;2024-02-21T07:36:35;8.60;100.00
60473;DHT22;46318;52.716;6.444;2024-02-21T07:39:03;8.60;100.00
60473;DHT22;46318;52.716;6.444;2024-02-21T07:41:30;8.60;100.00
60473;DHT22;46318;52.716;6.444;2024-02-21T07:43:56;8.60;100.00
60473;DHT22;46318;52.716;6.444;2024-02-21T07:46:22;8.60;100.00
60473;DHT22;46318;52.716;6.444;2024-02-21T07:48:48;8.60;100.00
60473;DHT22;46318;52.716;6.444;2024-02-21T07:51:14;8.60;100.00
60473;DHT22;46318;52.716;6.444;2024-02-21T07:53:42;8.60;100.00
60473;DHT22;46318;52.716;6.444;2024-02-21T07:56:11;8.60;100.00
60473;DHT22;46318;52.716;6.444;2024-02-21T07:58:37;8.50;100.00
60473;DHT22;46318;52.716;6.444;2024-02-21T08:01:03;8.50;100.00
60473;DHT22;46318;52.716;6.444;2024-02-21T08:03:29;8.50;100.00
60473;DHT22;46318;52.716;6.444;2024-02-21T08:05:54;8.50;100.00
60473;DHT22;46318;52.716;6.444;2024-02-21T08:08:20;8.50;100.00
60473;DHT22;46318;52.716;6.444;2024-02-21T08:10:48;8.50;100.00
60473;DHT22;46318;52.716;6.444;2024-02-21T08:13:14;8.50;100.00
60473;DHT22;46318;52.716;6.444;2024-02-21T08:15:40;8.50;100.00
60473;DHT22;46318;52.716;6.444;2024-02-21T08:18:08;8.50;100.00
60473;DHT22;46318;52.716;6.444;2024-02-21T08:20:34;8.50;100.00
60473;DHT22;46318;52.716;6.444;2024-02-21T08:23:00;8.50;100.00
60473;DHT22;46318;52.716;6.444;2024-02-21T08:25:26;8.50;100.00
60473;DHT22;46318;52.716;6.444;2024-02-21T08:27:59;8.50;100.00
60473;DHT22;46318;52.716;6.444;2024-02-21T08:30:25;8.60;100.00
60473;DHT22;46318;52.716;6.444;2024-02-21T08:32:50;8.50;100.00
60473;DHT22;46318;52.716;6.444;2024-02-21T08:35:16;8.50;100.00
60473;DHT22;46318;52.716;6.444;2024-02-21T08:37:46;8.60;100.00
60473;DHT22;46318;52.716;6.444;2024-02-21T08:40:13;8.50;100.00
60473;DHT22;46318;52.716;6.444;2024-02-21T08:42:46;8.60;100.00
60473;DHT22;46318;52.716;6.444;2024-02-21T08:45:12;8.60;100.00
60473;DHT22;46318;52.716;6.444;2024-02-21T08:47:42;8.60;100.00
60473;DHT22;46318;52.716;6.444;2024-02-21T08:50:08;8.60;100.00
60473;DHT22;46318;52.716;6.444;2024-02-21T08:52:37;8.60;100.00
60473;DHT22;46318;52.716;6.444;2024-02-21T08:55:03;8.60;100.00
60473;DHT22;46318;52.716;6.444;2024-02-21T08:57:30;8.60;100.00
60473;DHT22;46318;52.716;6.444;2024-02-21T09:00:05;8.60;100.00
60473;DHT22;46318;52.716;6.444;2024-02-21T09:02:42;8.60;100.00
60473;DHT22;46318;52.716;6.444;2024-02-21T09:05:08;8.60;100.00
60473;DHT22;46318;52.716;6.444;2024-02-21T09:07:34;8.60;100.00
60473;DHT22;46318;52.716;6.444;2024-02-21T09:10:00;8.70;100.00
60473;DHT22;46318;52.716;6.444;2024-02-21T09:12:26;8.70;100.00
60473;DHT22;46318;52.716;6.444;2024-02-21T09:14:52;8.70;100.00
60473;DHT22;46318;52.716;6.444;2024-02-21T09:17:18;8.70;100.00
60473;DHT22;46318;52.716;6.444;2024-02-21T09:19:46;8.70;100.00
60473;DHT22;46318;52.716;6.444;2024-02-21T09:22:13;8.80;100.00
60473;DHT22;46318;52.716;6.444;2024-02-21T09:24:39;8.80;100.00
60473;DHT22;46318;52.716;6.444;2024-02-21T09:27:05;8.80;100.00
60473;DHT22;46318;52.716;6.444;2024-02-21T09:29:31;8.80;100.00
60473;DHT22;46318;52.716;6.444;2024-02-21T09:31:59;8.80;100.00
60473;DHT22;46318;52.716;6.444;2024-02-21T09:34:25;8.80;100.00
60473;DHT22;46318;52.716;6.444;2024-02-21T09:36:51;8.80;100.00
60473;DHT22;46318;52.716;6.444;2024-02-21T09:39:17;8.90;100.00
60473;DHT22;46318;52.716;6.444;2024-02-21T09:41:50;8.90;100.00
60473;DHT22;46318;52.716;6.444;2024-02-21T09:44:22;8.90;100.00
60473;DHT22;46318;52.716;6.444;2024-02-21T09:47:04;8.90;100.00
60473;DHT22;46318;52.716;6.444;2024-02-21T09:49:49;8.90;100.00
60473;DHT22;46318;52.716;6.444;2024-02-21T09:52:18;8.90;100.00
60473;DHT22;46318;52.716;6.444;2024-02-21T09:54:44;8.90;100.00
60473;DHT22;46318;52.716;6.444;2024-02-21T09:57:11;8.90;100.00
60473;DHT22;46318;52.716;6.444;2024-02-21T09:59:37;8.90;100.00
60473;DHT22;46318;52.716;6.444;2024-02-21T10:02:03;8.90;100.00
60473;DHT22;46318;52.716;6.444;2024-02-21T10:04:30;9.00;100.00
60473;DHT22;46318;52.716;6.444;2024-02-21T10:06:57;9.00;100.00
60473;DHT22;46318;52.716;6.444;2024-02-21T10:09:24;9.00;100.00
60473;DHT22;46318;52.716;6.444;2024-02-21T10:11:54;9.00;100.00
60473;DHT22;46318;52.716;6.444;2024-02-21T10:14:20;9.00;100.00
60473;DHT22;46318;52.716;6.444;2024-02-21T10:16:48;9.00;100.00
60473;DHT22;46318;52.716;6.444;2024-02-21T10:19:21;9.00;100.00
60473;DHT22;46318;52.716;6.444;2024-02-21T10:22:03;9.00;100.00
60473;DHT22;46318;52.716;6.444;2024-02-21T10:24:34;9.00;100.00
60473;DHT22;46318;52.716;6.444;2024-02-21T10:27:04;9.00;100.00
60473;DHT22;46318;52.716;6.444;2024-02-21T10:29:34;9.00;100.00
60473;DHT22;46318;52.716;6.444;2024-02-21T10:32:11;9.00;100.00
60473;DHT22;46318;52.716;6.444;2024-02-21T10:34:39;9.10;100.00
60473;DHT22;46318;52.716;6.444;2024-02-21T10:37:07;9.10;100.00
60473;DHT22;46318;52.716;6.444;2024-02-21T10:39:41;9.10;100.00
60473;DHT22;46318;52.716;6.444;2024-02-21T10:42:11;9.10;100.00
60473;DHT22;46318;52.716;6.444;2024-02-21T10:44:38;9.10;100.00
60473;DHT22;46318;52.716;6.444;2024-02-21T10:47:09;9.20;100.00
60473;DHT22;46318;52.716;6.444;2024-02-21T10:49:40;9.20;100.00
60473;DHT22;46318;52.716;6.444;2024-02-21T10:52:13;9.20;100.00
60473;DHT22;46318;52.716;6.444;2024-02-21T10:54:58;9.20;100.00
60473;DHT22;46318;52.716;6.444;2024-02-21T10:57:29;9.30;100.00
60473;DHT22;46318;52.716;6.444;2024-02-21T10:59:58;9.20;100.00
60473;DHT22;46318;52.716;6.444;2024-02-21T11:02:25;9.30;100.00
60473;DHT22;46318;52.716;6.444;2024-02-21T11:04:54;9.30;100.00
60473;DHT22;46318;52.716;6.444;2024-02-21T11:07:21;9.30;100.00
60473;DHT22;46318;52.716;6.444;2024-02-21T11:09:53;9.30;100.00
60473;DHT22;46318;52.716;6.444;2024-02-21T11:12:23;9.30;100.00
60473;DHT22;46318;52.716;6.444;2024-02-21T11:14:49;9.30;100.00
60473;DHT22;46318;52.716;6.444;2024-02-21T11:17:19;9.30;100.00
60473;DHT22;46318;52.716;6.444;2024-02-21T11:19:46;9.40;100.00
60473;DHT22;46318;52.716;6.444;2024-02-21T11:22:16;9.40;100.00
60473;DHT22;46318;52.716;6.444;2024-02-21T11:24:43;9.40;100.00
60473;DHT22;46318;52.716;6.444;2024-02-21T11:27:16;9.40;100.00
60473;DHT22;46318;52.716;6.444;2024-02-21T11:29:57;9.40;100.00
60473;DHT22;46318;52.716;6.444;2024-02-21T11:32:25;9.40;100.00
60473;DHT22;46318;52.716;6.444;2024-02-21T11:35:05;9.40;100.00
60473;DHT22;46318;52.716;6.444;2024-02-21T11:37:32;9.40;100.00
60473;DHT22;46318;52.716;6.444;2024-02-21T11:39:59;9.40;100.00
60473;DHT22;46318;52.716;6.444;2024-02-21T11:42:26;9.50;100.00
60473;DHT22;46318;52.716;6.444;2024-02-21T11:44:53;9.50;100.00
60473;DHT22;46318;52.716;6.444;2024-02-21T11:47:22;9.50;100.00
60473;DHT22;46318;52.716;6.444;2024-02-21T11:49:49;9.50;100.00
60473;DHT22;46318;52.716;6.444;2024-02-21T11:52:22;9.50;100.00
60473;DHT22;46318;52.716;6.444;2024-02-21T11:54:51;9.50;100.00
60473;DHT22;46318;52.716;6.444;2024-02-21T11:57:18;9.40;100.00
60473;DHT22;46318;52.716;6.444;2024-02-21T11:59:47;9.40;100.00
60473;DHT22;46318;52.716;6.444;2024-02-21T12:02:14;9.50;100.00
60473;DHT22;46318;52.716;6.444;2024-02-21T12:04:41;9.50;100.00
60473;DHT22;46318;52.716;6.444;2024-02-21T12:07:07;9.50;100.00
60473;DHT22;46318;52.716;6.444;2024-02-21T12:09:34;9.50;100.00
60473;DHT22;46318;52.716;6.444;2024-02-21T12:14:29;9.40;100.00
60473;DHT22;46318;52.716;6.444;2024-02-21T12:16:56;9.40;100.00
60473;DHT22;46318;52.716;6.444;2024-02-21T12:19:22;9.40;100.00
60473;DHT22;46318;52.716;6.444;2024-02-21T12:21:49;9.40;100.00
60473;DHT22;46318;52.716;6.444;2024-02-21T12:24:24;9.50;100.00
60473;DHT22;46318;52.716;6.444;2024-02-21T12:26:51;9.50;100.00
60473;DHT22;46318;52.716;6.444;2024-02-21T12:29:19;9.50;100.00
60473;DHT22;46318;52.716;6.444;2024-02-21T12:31:45;9.40;100.00
60473;DHT22;46318;52.716;6.444;2024-02-21T12:34:15;9.50;100.00
60473;DHT22;46318;52.716;6.444;2024-02-21T12:36:44;9.50;100.00
60473;DHT22;46318;52.716;6.444;2024-02-21T12:39:13;9.50;100.00
60473;DHT22;46318;52.716;6.444;2024-02-21T12:41:39;9.50;100.00
60473;DHT22;46318;52.716;6.444;2024-02-21T12:44:07;9.40;100.00
60473;DHT22;46318;52.716;6.444;2024-02-21T12:46:36;9.50;100.00
60473;DHT22;46318;52.716;6.444;2024-02-21T12:49:03;9.50;100.00
60473;DHT22;46318;52.716;6.444;2024-02-21T12:51:32;9.50;100.00
60473;DHT22;46318;52.716;6.444;2024-02-21T12:53:58;9.50;100.00
60473;DHT22;46318;52.716;6.444;2024-02-21T12:56:25;9.50;100.00
60473;DHT22;46318;52.716;6.444;2024-02-21T12:58:52;9.50;100.00
60473;DHT22;46318;52.716;6.444;2024-02-21T13:01:19;9.50;100.00
60473;DHT22;46318;52.716;6.444;2024-02-21T13:03:45;9.50;100.00
60473;DHT22;46318;52.716;6.444;2024-02-21T13:06:13;9.50;100.00
60473;DHT22;46318;52.716;6.444;2024-02-21T13:08:39;9.50;100.00
60473;DHT22;46318;52.716;6.444;2024-02-21T13:11:06;9.50;100.00
60473;DHT22;46318;52.716;6.444;2024-02-21T13:13:32;9.50;100.00
60473;DHT22;46318;52.716;6.444;2024-02-21T13:15:59;9.50;100.00
60473;DHT22;46318;52.716;6.444;2024-02-21T13:19:27;9.60;100.00
60473;DHT22;46318;52.716;6.444;2024-02-21T13:21:53;9.60;100.00
60473;DHT22;46318;52.716;6.444;2024-02-21T13:24:18;9.60;100.00
60473;DHT22;46318;52.716;6.444;2024-02-21T13:26:44;9.60;100.00
60473;DHT22;46318;52.716;6.444;2024-02-21T13:29:10;9.60;100.00
60473;DHT22;46318;52.716;6.444;2024-02-21T13:31:36;9.70;100.00
60473;DHT22;46318;52.716;6.444;2024-02-21T13:34:01;9.70;100.00
60473;DHT22;46318;52.716;6.444;2024-02-21T13:36:28;9.70;100.00
60473;DHT22;46318;52.716;6.444;2024-02-21T13:38:54;9.70;100.00
60473;DHT22;46318;52.716;6.444;2024-02-21T13:41:20;9.70;100.00
60473;DHT22;46318;52.716;6.444;2024-02-21T13:43:48;9.70;100.00
60473;DHT22;46318;52.716;6.444;2024-02-21T13:46:14;9.60;99.90
60473;DHT22;46318;52.716;6.444;2024-02-21T13:48:40;9.60;100.00
60473;DHT22;46318;52.716;6.444;2024-02-21T13:51:05;9.60;99.70
60473;DHT22;46318;52.716;6.444;2024-02-21T13:53:31;9.70;99.60
60473;DHT22;46318;52.716;6.444;2024-02-21T13:55:57;9.60;99.80
60473;DHT22;46318;52.716;6.444;2024-02-21T13:58:23;9.60;99.70
60473;DHT22;46318;52.716;6.444;2024-02-21T14:00:50;9.60;99.90
60473;DHT22;46318;52.716;6.444;2024-02-21T14:03:16;9.60;99.50
60473;DHT22;46318;52.716;6.444;2024-02-21T14:05:42;9.60;99.40
60473;DHT22;46318;52.716;6.444;2024-02-21T14:08:08;9.60;99.20
60473;DHT22;46318;52.716;6.444;2024-02-21T14:10:34;9.60;99.30
60473;DHT22;46318;52.716;6.444;2024-02-21T14:12:59;9.60;99.20
60473;DHT22;46318;52.716;6.444;2024-02-21T14:15:26;9.60;99.20
60473;DHT22;46318;52.716;6.444;2024-02-21T14:17:51;9.60;99.00
60473;DHT22;46318;52.716;6.444;2024-02-21T14:20:17;9.70;98.90
60473;DHT22;46318;52.716;6.444;2024-02-21T14:22:43;9.70;99.20
60473;DHT22;46318;52.716;6.444;2024-02-21T14:25:08;9.70;98.70
60473;DHT22;46318;52.716;6.444;2024-02-21T14:27:34;9.70;98.70
60473;DHT22;46318;52.716;6.444;2024-02-21T14:30:03;9.70;98.60
60473;DHT22;46318;52.716;6.444;2024-02-21T14:32:30;9.70;98.90
60473;DHT22;46318;52.716;6.444;2024-02-21T14:34:55;9.70;98.70
60473;DHT22;46318;52.716;6.444;2024-02-21T14:37:21;9.70;98.40
60473;DHT22;46318;52.716;6.444;2024-02-21T14:39:47;9.70;98.10
60473;DHT22;46318;52.716;6.444;2024-02-21T14:42:13;9.70;98.20
60473;DHT22;46318;52.716;6.444;2024-02-21T14:44:38;9.70;98.40
60473;DHT22;46318;52.716;6.444;2024-02-21T14:47:05;9.70;97.90
60473;DHT22;46318;52.716;6.444;2024-02-21T14:49:31;9.70;97.70
60473;DHT22;46318;52.716;6.444;2024-02-21T14:51:57;9.70;98.10
60473;DHT22;46318;52.716;6.444;2024-02-21T14:54:23;9.70;97.80
60473;DHT22;46318;52.716;6.444;2024-02-21T14:56:49;9.70;97.90
60473;DHT22;46318;52.716;6.444;2024-02-21T14:59:15;9.70;98.00
60473;DHT22;46318;52.716;6.444;2024-02-21T15:01:42;9.70;97.70
60473;DHT22;46318;52.716;6.444;2024-02-21T15:04:08;9.70;97.90
60473;DHT22;46318;52.716;6.444;2024-02-21T15:06:34;9.70;97.90
60473;DHT22;46318;52.716;6.444;2024-02-21T15:09:02;9.70;97.90
60473;DHT22;46318;52.716;6.444;2024-02-21T15:11:29;9.70;98.00
60473;DHT22;46318;52.716;6.444;2024-02-21T15:13:55;9.70;97.70
60473;DHT22;46318;52.716;6.444;2024-02-21T15:16:21;9.70;97.40
60473;DHT22;46318;52.716;6.444;2024-02-21T15:18:47;9.70;97.40
60473;DHT22;46318;52.716;6.444;2024-02-21T15:21:13;9.70;97.50
60473;DHT22;46318;52.716;6.444;2024-02-21T15:23:41;9.70;97.70
60473;DHT22;46318;52.716;6.444;2024-02-21T15:26:07;9.70;97.60
60473;DHT22;46318;52.716;6.444;2024-02-21T15:28:33;9.70;97.60
60473;DHT22;46318;52.716;6.444;2024-02-21T15:30:59;9.70;97.70
60473;DHT22;46318;52.716;6.444;2024-02-21T15:33:25;9.70;97.60
60473;DHT22;46318;52.716;6.444;2024-02-21T15:35:52;9.70;97.80